Airfield :
LOGIN :

Register | Disclaimer

   EN    FR    IT 

 










Legend :    VFR   Marginal VFR   IFR   Intensive IFR   Very Intensive IFR
Visi :
Ceiling :
>= 8 km
>= 3000ft
5 to 8 km
1000 to 3000 ft
1500m to 5 km
500 to 1000 ft
800 to 1500m
200 to 500 ft
< 800m
< 200 ft
Symbols :   Thunderstorms  Fog  Heavy snow  Heavy precipitations  Wind > 20 kt
SIGMETs :     Misc.  Thunderstorms  Icing  Turbulence  Mountain Waves  Volcanic Ashes






- Airport Elevation : 1470 ft
- IATA code : KLU


LOWK - Klagenfurt

CURRENT METAR :
  • 281020Z AUTO 06003KT 020V090 9999 OVC010 01/M01 Q1020 NOSIG

EXPIRED METARs :
  • 280950Z AUTO VRB02KT 9999 OVC010 00/M01 Q1021 NOSIG
  • 280920Z AUTO 07003KT 9999 OVC010 00/M01 Q1021 NOSIG
  • 280850Z AUTO 08003KT 050V110 9999 OVC009 M00/M01 Q1021 BECMG OVC010
  • 280820Z AUTO 07003KT 9999 OVC009 00/M01 Q1022 BECMG OVC010
  • 280750Z AUTO 05003KT 020V080 9999 OVC009 M00/M01 Q1022 BECMG OVC010

TAF AMD TAF LOWK
Valid from the 28 at 08:00 until the 29 at 06:00 UTC


280800Z 2808/2906 VRB02KT 9999 BKN010 TX03/2814Z TNM00/2808Z
TEMPO 2808/2809 -DZ BKN007
BECMG 2809/2811 BKN020
TEMPO 2821/2906 BKN012
PROB30
TEMPO 2900/2906 2000 -DZ -RASN BKN004



MET'MAP, your aeronautical weather chart ! - Copyright ORBIFLY December 2007 - Disclaimer

ORBIFLY MET'MAP TEAM :

Programming & Development : Alexandra Zaïnal
Original concept : Baudouin d'Aumeries
Technical & hardware support : Manuel Goepfert
Assistance : Marc-Olivier Méhu




SOURCES & CREDITS :

   NOAA